createdAt,value
2019-01-20T00:01:55.512Z,10.82
2019-01-20T00:04:36.240Z,8.55
2019-01-20T00:07:05.054Z,8.60
2019-01-20T00:09:52.616Z,8.43
2019-01-20T00:12:40.182Z,9.50
2019-01-20T00:15:27.825Z,10.80
2019-01-20T00:18:15.400Z,10.50
2019-01-20T00:21:02.972Z,10.15
2019-01-20T00:23:50.541Z,7.70
2019-01-20T00:26:38.131Z,7.20
2019-01-20T00:29:25.694Z,7.22
2019-01-20T00:32:13.253Z,7.25
2019-01-20T00:35:00.945Z,8.50
2019-01-20T00:37:48.546Z,7.95
2019-01-20T00:40:36.115Z,10.40
2019-01-20T00:46:15.722Z,7.28
2019-01-20T00:51:56.017Z,7.33
2019-01-20T00:57:50.174Z,10.90
2019-01-20T01:00:30.590Z,12.37
2019-01-20T01:03:11.798Z,10.28
2019-01-20T01:05:52.793Z,9.43
2019-01-20T01:11:32.025Z,9.45
2019-01-20T01:14:13.264Z,8.20
2019-01-20T01:20:06.202Z,9.53
2019-01-20T01:22:47.046Z,9.43
2019-01-20T01:25:27.934Z,6.55
2019-01-20T01:31:07.285Z,9.03
2019-01-20T01:33:47.657Z,7.17
2019-01-20T01:39:40.533Z,12.80
2019-01-20T01:42:21.010Z,10.65
2019-01-20T01:45:01.732Z,9.28
2019-01-20T01:50:41.466Z,11.10
2019-01-20T01:53:22.123Z,9.63
2019-01-20T01:59:15.796Z,11.57
2019-01-20T02:01:56.924Z,9.75
2019-01-20T02:04:37.458Z,10.78
2019-01-20T02:07:18.225Z,8.53
2019-01-20T02:12:57.969Z,11.95
2019-01-20T02:18:37.246Z,9.93
2019-01-20T02:21:17.987Z,6.10
2019-01-20T02:26:57.017Z,10.23
2019-01-20T02:29:37.681Z,9.43
2019-01-20T02:35:18.978Z,12.58
2019-01-20T02:38:06.934Z,9.35
2019-01-20T02:40:35.614Z,10.38
2019-01-20T02:46:27.047Z,9.50
2019-01-20T02:49:14.841Z,8.45
2019-01-20T02:52:02.599Z,9.28
2019-01-20T02:54:50.229Z,8.65
2019-01-20T02:57:37.996Z,7.75
2019-01-20T03:00:25.769Z,7.50
2019-01-20T03:03:13.474Z,9.60
2019-01-20T03:06:01.395Z,12.73
2019-01-20T03:08:49.207Z,11.68
2019-01-20T03:11:36.858Z,10.35
2019-01-20T03:14:24.463Z,10.80
2019-01-20T03:17:12.051Z,11.35
2019-01-20T03:19:59.889Z,10.20
2019-01-20T03:22:47.474Z,9.45
2019-01-20T03:25:35.020Z,11.70
2019-01-20T03:28:22.584Z,10.80
2019-01-20T03:31:10.142Z,10.43
2019-01-20T03:33:57.699Z,9.30
2019-01-20T03:36:45.259Z,8.50
2019-01-20T03:39:32.826Z,10.72
2019-01-20T03:42:20.387Z,10.13
2019-01-20T03:48:00.005Z,7.47
2019-01-20T03:53:39.215Z,9.18
2019-01-20T03:59:19.084Z,11.40
2019-01-20T04:01:47.882Z,6.65
2019-01-20T04:04:35.530Z,11.48
2019-01-20T04:07:23.131Z,11.55
2019-01-20T04:10:10.707Z,10.55
2019-01-20T04:12:58.288Z,11.10
2019-01-20T04:15:45.857Z,11.38
2019-01-20T04:18:33.417Z,12.18
2019-01-20T04:21:20.983Z,11.63
2019-01-20T04:24:08.541Z,19.23
2019-01-20T04:26:56.118Z,20.72
2019-01-20T04:29:43.694Z,14.45
2019-01-20T04:32:31.273Z,13.45
2019-01-20T04:35:18.846Z,12.63
2019-01-20T04:38:06.416Z,15.32
2019-01-20T04:40:53.971Z,10.63
2019-01-20T04:46:47.569Z,9.83
2019-01-20T04:49:28.061Z,5.62
2019-01-20T04:55:07.266Z,8.48
2019-01-20T05:00:47.272Z,8.90
2019-01-20T05:03:28.290Z,7.30
2019-01-20T05:09:21.724Z,10.60
2019-01-20T05:12:02.468Z,11.00
2019-01-20T05:14:43.473Z,7.78
2019-01-20T05:17:22.910Z,7.60
2019-01-20T05:20:10.599Z,7.83
2019-01-20T05:22:58.421Z,8.45
2019-01-20T05:25:46.186Z,9.50
2019-01-20T05:28:33.960Z,8.35
2019-01-20T05:31:21.574Z,8.88
2019-01-20T05:34:09.152Z,8.18
2019-01-20T05:36:56.714Z,8.55
2019-01-20T05:39:44.287Z,8.20
2019-01-20T05:42:31.855Z,9.38
2019-01-20T05:48:25.775Z,9.53
2019-01-20T05:51:06.269Z,6.70
2019-01-20T05:53:47.370Z,7.12
2019-01-20T05:59:39.369Z,9.90
2019-01-20T06:02:27.586Z,8.55
2019-01-20T06:05:15.524Z,8.53
2019-01-20T06:08:03.481Z,10.23
2019-01-20T06:10:51.423Z,10.05
2019-01-20T06:13:39.390Z,10.30
2019-01-20T06:16:27.351Z,10.10
2019-01-20T06:18:56.048Z,11.05
2019-01-20T06:21:43.614Z,12.82
2019-01-20T06:24:31.256Z,12.20
2019-01-20T06:27:18.820Z,9.28
2019-01-20T06:30:06.385Z,8.45
2019-01-20T06:32:53.944Z,6.50
2019-01-20T06:35:41.521Z,5.80
2019-01-20T06:38:29.349Z,5.72
2019-01-20T06:41:16.901Z,6.12
2019-01-20T06:46:56.629Z,7.00
2019-01-20T06:49:37.801Z,6.40
2019-01-20T06:55:31.618Z,9.18
2019-01-20T06:58:12.058Z,11.88
2019-01-20T07:00:52.954Z,8.53
2019-01-20T07:03:33.579Z,7.35
2019-01-20T07:09:13.490Z,4.15
2019-01-20T07:15:07.268Z,10.43
2019-01-20T07:17:48.043Z,10.48
2019-01-20T07:20:28.914Z,12.70
2019-01-20T07:23:09.756Z,25.55
2019-01-20T07:28:49.749Z,10.60
2019-01-20T07:34:29.662Z,9.90
2019-01-20T07:37:10.584Z,8.90
2019-01-20T07:42:49.576Z,9.98
2019-01-20T07:45:30.282Z,10.80
2019-01-20T07:51:23.408Z,13.72
2019-01-20T07:53:52.261Z,12.85
2019-01-20T07:56:39.833Z,10.95
2019-01-20T07:59:27.402Z,11.18
2019-01-20T08:02:15.013Z,11.28
2019-01-20T08:05:02.840Z,11.05
2019-01-20T08:07:50.402Z,10.72
2019-01-20T08:10:37.964Z,11.55
2019-01-20T08:13:25.657Z,11.60
2019-01-20T08:16:13.229Z,12.30
2019-01-20T08:19:00.881Z,13.98
2019-01-20T08:21:48.452Z,14.10
2019-01-20T08:24:36.018Z,16.85
2019-01-20T08:27:23.583Z,22.20
2019-01-20T08:30:11.145Z,37.85
2019-01-20T08:32:58.722Z,18.25
2019-01-20T08:35:46.294Z,15.93
2019-01-20T08:38:33.888Z,18.70
2019-01-20T08:41:21.430Z,19.70
2019-01-20T08:47:14.845Z,23.83
2019-01-20T08:49:55.642Z,13.58
2019-01-20T08:55:35.405Z,11.63
2019-01-20T09:01:14.981Z,7.42
2019-01-20T09:03:55.426Z,9.53
2019-01-20T09:09:35.442Z,24.20
2019-01-20T09:15:14.894Z,10.93
2019-01-20T09:17:56.017Z,8.53
2019-01-20T09:23:49.210Z,9.33
2019-01-20T09:26:29.857Z,9.88
2019-01-20T09:29:10.648Z,8.18
2019-01-20T09:35:04.483Z,7.42
2019-01-20T09:37:45.094Z,9.50
2019-01-20T09:40:26.017Z,8.10
2019-01-20T09:43:06.765Z,6.17
2019-01-20T09:49:00.589Z,6.58
2019-01-20T09:51:41.541Z,8.03
2019-01-20T09:54:22.769Z,7.12
2019-01-20T09:57:04.021Z,4.78
2019-01-20T10:02:44.103Z,5.22
2019-01-20T10:08:23.359Z,6.33
2019-01-20T10:11:03.770Z,5.28
2019-01-20T10:16:43.680Z,7.80
2019-01-20T10:19:24.440Z,6.03
2019-01-20T10:25:18.278Z,7.83
2019-01-20T10:27:58.597Z,6.55
2019-01-20T10:30:39.474Z,7.83
2019-01-20T10:39:17.274Z,7.78
2019-01-20T10:41:58.083Z,6.85
2019-01-20T10:47:37.469Z,6.10
2019-01-20T10:50:18.223Z,5.95
2019-01-20T10:56:12.114Z,6.65
2019-01-20T10:58:52.494Z,6.55
2019-01-20T11:01:33.309Z,6.85
2019-01-20T11:07:16.313Z,7.28
2019-01-20T11:09:57.169Z,6.05
2019-01-20T11:15:51.235Z,6.80
2019-01-20T11:18:32.061Z,6.28
2019-01-20T11:21:12.728Z,7.17
2019-01-20T11:23:53.552Z,6.95
2019-01-20T11:29:46.372Z,8.45
2019-01-20T11:32:26.766Z,8.25
2019-01-20T11:35:07.544Z,6.60
2019-01-20T11:41:01.282Z,6.45
2019-01-20T11:43:42.065Z,6.70
2019-01-20T11:46:23.018Z,26.55
2019-01-20T11:49:03.490Z,15.78
2019-01-20T11:54:42.790Z,11.30
2019-01-20T11:57:23.510Z,4.58
2019-01-20T12:03:03.555Z,5.80
2019-01-20T12:08:47.049Z,5.30
2019-01-20T12:11:27.630Z,5.58
2019-01-20T12:14:08.554Z,4.92
2019-01-20T12:19:48.765Z,5.20
2019-01-20T12:25:28.052Z,5.20
2019-01-20T12:31:08.022Z,4.85
2019-01-20T12:33:48.771Z,5.00
2019-01-20T12:39:15.494Z,5.30
2019-01-20T12:42:03.053Z,5.33
2019-01-20T12:50:55.406Z,5.35
2019-01-20T12:53:35.786Z,5.28
2019-01-20T12:56:16.625Z,5.35
2019-01-20T12:58:57.715Z,5.47
2019-01-20T13:04:37.701Z,5.08
2019-01-20T13:07:18.292Z,4.50
2019-01-20T13:13:11.634Z,5.90
2019-01-20T13:15:52.683Z,9.63
2019-01-20T13:18:33.353Z,5.37
2019-01-20T13:24:24.307Z,4.70
2019-01-20T13:27:12.278Z,5.87
2019-01-20T13:30:00.264Z,3.87
2019-01-20T13:32:48.625Z,4.62
2019-01-20T13:35:36.824Z,5.00
2019-01-20T13:38:25.212Z,4.75
2019-01-20T13:41:32.440Z,4.92
2019-01-20T13:44:13.561Z,5.17
2019-01-20T13:46:54.191Z,4.35
2019-01-20T13:49:35.021Z,5.90
2019-01-20T13:52:15.979Z,5.75
2019-01-20T13:54:56.778Z,4.17
2019-01-20T14:00:35.960Z,3.40
2019-01-20T14:06:15.010Z,3.85
2019-01-20T14:08:55.773Z,4.10
2019-01-20T14:14:53.919Z,4.22
2019-01-20T14:17:31.776Z,4.30
2019-01-20T14:20:12.524Z,3.42
2019-01-20T14:22:53.017Z,3.30
2019-01-20T14:28:32.731Z,4.30
2019-01-20T14:34:26.947Z,5.20
2019-01-20T14:37:08.114Z,4.53
2019-01-20T14:39:48.804Z,5.72
2019-01-20T14:42:29.542Z,4.35
2019-01-20T14:48:09.210Z,5.40
2019-01-20T14:50:49.837Z,5.25
2019-01-20T14:56:42.905Z,4.72
2019-01-20T14:59:23.869Z,5.95
2019-01-20T15:05:17.048Z,5.78
2019-01-20T15:07:57.636Z,5.53
2019-01-20T15:10:38.273Z,5.80
2019-01-20T15:13:19.086Z,4.17
2019-01-20T15:15:59.865Z,4.45
2019-01-20T15:21:53.762Z,5.97
2019-01-20T15:24:34.549Z,6.22
2019-01-20T15:27:15.336Z,4.50
2019-01-20T15:29:55.871Z,6.15
2019-01-20T15:35:49.490Z,5.62
2019-01-20T15:38:30.759Z,5.05
2019-01-20T15:40:59.420Z,5.15
2019-01-20T15:46:51.070Z,7.15
2019-01-20T15:49:39.030Z,6.65
2019-01-20T15:52:26.982Z,7.40
2019-01-20T15:58:08.305Z,28.25
2019-01-20T16:00:55.902Z,17.05
2019-01-20T16:03:43.946Z,45.03
2019-01-20T16:06:31.929Z,14.78
2019-01-20T16:09:19.908Z,13.55
2019-01-20T16:12:07.867Z,29.65
2019-01-20T16:14:55.817Z,15.32
2019-01-20T16:17:44.180Z,11.08
2019-01-20T16:20:32.486Z,11.63
2019-01-20T16:23:20.457Z,9.83
2019-01-20T16:26:08.480Z,12.23
2019-01-20T16:28:56.426Z,12.20
2019-01-20T16:31:44.391Z,12.37
2019-01-20T16:34:32.353Z,12.00
2019-01-20T16:37:20.306Z,12.45
2019-01-20T16:40:09.148Z,12.58
2019-01-20T16:42:57.127Z,14.10
2019-01-20T16:45:41.987Z,13.70
2019-01-20T16:48:21.218Z,12.07
2019-01-20T16:51:02.077Z,12.70
2019-01-20T16:56:41.789Z,8.48
2019-01-20T17:02:34.255Z,10.18
2019-01-20T17:05:14.836Z,10.20
2019-01-20T17:07:55.655Z,10.13
2019-01-20T17:10:36.237Z,8.05
2019-01-20T17:16:16.144Z,11.00
2019-01-20T17:21:56.241Z,27.13
2019-01-20T17:24:37.409Z,24.75
2019-01-20T17:30:17.699Z,15.70
2019-01-20T17:32:58.416Z,13.95
2019-01-20T17:38:49.302Z,15.93
2019-01-20T17:41:37.256Z,14.45
2019-01-20T17:44:18.061Z,13.25
2019-01-20T17:46:58.745Z,11.38
2019-01-20T17:52:38.749Z,6.75
2019-01-20T17:55:19.681Z,6.75
2019-01-20T18:03:47.045Z,10.00
2019-01-20T18:06:34.625Z,11.50
2019-01-20T18:09:22.186Z,7.90
2019-01-20T18:12:10.017Z,9.83
2019-01-20T18:14:57.592Z,8.90
2019-01-20T18:17:45.156Z,11.03
2019-01-20T18:20:32.737Z,10.50
2019-01-20T18:23:20.312Z,11.35
2019-01-20T18:26:07.888Z,14.73
2019-01-20T18:28:55.487Z,20.23
2019-01-20T18:31:43.073Z,23.95
2019-01-20T18:34:30.701Z,17.60
2019-01-20T18:37:18.265Z,15.68
2019-01-20T18:40:05.839Z,11.93
2019-01-20T18:42:53.689Z,10.20
2019-01-20T18:48:38.707Z,8.53
2019-01-20T18:54:32.370Z,10.05
2019-01-20T18:57:13.207Z,8.73
2019-01-20T18:59:54.050Z,8.28
2019-01-20T19:02:34.581Z,6.83
2019-01-20T19:08:14.489Z,7.25
2019-01-20T19:13:53.621Z,6.00
2019-01-20T19:16:34.308Z,6.53
2019-01-20T19:22:16.667Z,7.35
2019-01-20T19:24:57.356Z,6.90
2019-01-20T19:30:50.960Z,9.38
2019-01-20T19:36:44.023Z,10.05
2019-01-20T19:39:23.081Z,11.38
2019-01-20T19:42:11.073Z,11.90
2019-01-20T19:44:52.250Z,13.05
2019-01-20T19:50:45.742Z,15.05
2019-01-20T19:53:26.271Z,10.70
2019-01-20T19:56:07.055Z,7.53
2019-01-20T19:58:47.785Z,8.03
2019-01-20T20:04:27.733Z,8.60
2019-01-20T20:10:10.807Z,9.78
2019-01-20T20:12:51.976Z,11.40
2019-01-20T20:15:22.796Z,9.53
2019-01-20T20:18:10.372Z,28.02
2019-01-20T20:20:57.952Z,23.85
2019-01-20T20:23:45.541Z,29.65
2019-01-20T20:26:33.131Z,17.27
2019-01-20T20:29:20.706Z,20.85
2019-01-20T20:32:08.573Z,13.95
2019-01-20T20:34:56.310Z,16.05
2019-01-20T20:37:43.875Z,21.65
2019-01-20T20:40:31.461Z,23.80
2019-01-20T20:43:19.146Z,13.50
2019-01-20T20:51:59.954Z,11.93
2019-01-20T20:57:40.955Z,15.20
2019-01-20T21:00:30.298Z,12.95
2019-01-20T21:03:19.396Z,15.45
2019-01-20T21:09:00.902Z,16.97
2019-01-20T21:11:48.880Z,18.40
2019-01-20T21:14:36.838Z,19.27
2019-01-20T21:17:24.785Z,18.67
2019-01-20T21:20:14.163Z,20.05
2019-01-20T21:23:02.118Z,15.90
2019-01-20T21:25:50.075Z,13.55
2019-01-20T21:28:38.040Z,12.60
2019-01-20T21:31:25.984Z,12.73
2019-01-20T21:34:13.936Z,12.95
2019-01-20T21:37:01.985Z,14.50
2019-01-20T21:39:49.943Z,10.55
2019-01-20T21:42:37.896Z,19.60
2019-01-20T21:45:18.309Z,17.62
2019-01-20T21:47:59.472Z,21.30
2019-01-20T21:50:40.543Z,11.57
2019-01-20T21:56:20.282Z,10.58
2019-01-20T21:59:01.382Z,10.68
2019-01-20T22:04:55.218Z,10.65
2019-01-20T22:07:23.937Z,11.55
2019-01-20T22:10:11.526Z,9.63
2019-01-20T22:12:59.262Z,13.40
2019-01-20T22:15:46.954Z,22.35
2019-01-20T22:18:36.917Z,10.18
2019-01-20T22:21:24.721Z,8.55
2019-01-20T22:24:12.717Z,8.78
2019-01-20T22:27:00.692Z,9.03
2019-01-20T22:29:48.618Z,11.57
2019-01-20T22:32:36.435Z,9.18
2019-01-20T22:35:24.020Z,10.50
2019-01-20T22:38:11.824Z,10.63
2019-01-20T22:40:59.622Z,10.35
2019-01-20T22:46:39.568Z,9.95
2019-01-20T22:49:21.040Z,9.10
2019-01-20T22:55:14.569Z,14.63
2019-01-20T22:57:55.180Z,18.00
2019-01-20T23:00:54.843Z,15.03
2019-01-20T23:09:39.482Z,19.37
2019-01-20T23:12:20.238Z,16.90
2019-01-20T23:15:01.152Z,13.55
2019-01-20T23:20:54.938Z,20.85
2019-01-20T23:23:35.492Z,11.25
2019-01-20T23:26:16.418Z,10.45
2019-01-20T23:31:56.623Z,9.68
2019-01-20T23:34:37.255Z,9.83
2019-01-20T23:40:31.378Z,12.25
2019-01-20T23:43:11.995Z,12.78
2019-01-20T23:45:52.661Z,10.10
2019-01-20T23:48:33.575Z,11.35
2019-01-20T23:54:13.540Z,9.50
